sensor_id;sensor_type;location;lat;lon;timestamp;pressure;altitude;pressure_sealevel;temperature;humidity
54417;BME280;40326;51.220;7.250;2022-11-15T00:01:31;97771.25;;;9.65;100.00
54417;BME280;40326;51.220;7.250;2022-11-15T00:03:57;97775.03;;;9.74;100.00
54417;BME280;40326;51.220;7.250;2022-11-15T00:06:22;97771.31;;;9.80;100.00
54417;BME280;40326;51.220;7.250;2022-11-15T00:08:47;97759.88;;;9.71;100.00
54417;BME280;40326;51.220;7.250;2022-11-15T00:11:13;97767.94;;;9.93;100.00
54417;BME280;40326;51.220;7.250;2022-11-15T00:13:38;97762.53;;;9.84;100.00
54417;BME280;40326;51.220;7.250;2022-11-15T00:16:04;97764.66;;;9.91;100.00
54417;BME280;40326;51.220;7.250;2022-11-15T00:18:30;97765.16;;;9.98;100.00
54417;BME280;40326;51.220;7.250;2022-11-15T00:20:56;97765.47;;;9.92;100.00
54417;BME280;40326;51.220;7.250;2022-11-15T00:23:27;97768.25;;;10.03;100.00
54417;BME280;40326;51.220;7.250;2022-11-15T00:25:57;97768.44;;;10.00;100.00
54417;BME280;40326;51.220;7.250;2022-11-15T00:28:23;97767.06;;;10.09;100.00
54417;BME280;40326;51.220;7.250;2022-11-15T00:30:48;97763.41;;;9.99;100.00
54417;BME280;40326;51.220;7.250;2022-11-15T00:33:13;97758.97;;;10.16;100.00
54417;BME280;40326;51.220;7.250;2022-11-15T00:35:38;97747.97;;;10.14;100.00
54417;BME280;40326;51.220;7.250;2022-11-15T00:38:04;97744.25;;;10.20;100.00
54417;BME280;40326;51.220;7.250;2022-11-15T00:40:29;97754.16;;;10.26;100.00
54417;BME280;40326;51.220;7.250;2022-11-15T00:42:55;97762.13;;;10.36;100.00
54417;BME280;40326;51.220;7.250;2022-11-15T00:45:20;97759.63;;;10.48;100.00
54417;BME280;40326;51.220;7.250;2022-11-15T00:47:46;97755.44;;;10.47;100.00
54417;BME280;40326;51.220;7.250;2022-11-15T00:50:12;97765.13;;;10.57;100.00
54417;BME280;40326;51.220;7.250;2022-11-15T00:52:37;97762.38;;;10.60;100.00
54417;BME280;40326;51.220;7.250;2022-11-15T00:55:03;97757.44;;;10.57;100.00
54417;BME280;40326;51.220;7.250;2022-11-15T00:57:28;97755.00;;;10.55;100.00
54417;BME280;40326;51.220;7.250;2022-11-15T00:59:56;97756.38;;;10.61;100.00
54417;BME280;40326;51.220;7.250;2022-11-15T01:02:21;97745.00;;;10.65;100.00
54417;BME280;40326;51.220;7.250;2022-11-15T01:04:47;97746.47;;;10.69;100.00
54417;BME280;40326;51.220;7.250;2022-11-15T01:07:13;97747.47;;;10.66;100.00
54417;BME280;40326;51.220;7.250;2022-11-15T01:09:38;97748.75;;;10.73;100.00
54417;BME280;40326;51.220;7.250;2022-11-15T01:12:04;97752.69;;;10.79;100.00
54417;BME280;40326;51.220;7.250;2022-11-15T01:14:29;97746.09;;;10.75;100.00
54417;BME280;40326;51.220;7.250;2022-11-15T01:16:54;97744.09;;;10.80;100.00
54417;BME280;40326;51.220;7.250;2022-11-15T01:19:20;97734.94;;;10.90;100.00
54417;BME280;40326;51.220;7.250;2022-11-15T01:21:45;97739.69;;;10.96;100.00
54417;BME280;40326;51.220;7.250;2022-11-15T01:24:13;97736.00;;;10.86;100.00
54417;BME280;40326;51.220;7.250;2022-11-15T01:26:39;97728.53;;;10.83;100.00
54417;BME280;40326;51.220;7.250;2022-11-15T01:29:04;97726.16;;;10.80;100.00
54417;BME280;40326;51.220;7.250;2022-11-15T06:01:28;97630.09;;;11.79;100.00
54417;BME280;40326;51.220;7.250;2022-11-15T06:03:53;97634.34;;;11.80;100.00
54417;BME280;40326;51.220;7.250;2022-11-15T06:06:20;97631.81;;;11.66;100.00
54417;BME280;40326;51.220;7.250;2022-11-15T06:08:45;97638.19;;;11.60;100.00
54417;BME280;40326;51.220;7.250;2022-11-15T06:11:10;97634.88;;;11.58;100.00
54417;BME280;40326;51.220;7.250;2022-11-15T06:13:36;97639.50;;;11.53;100.00
54417;BME280;40326;51.220;7.250;2022-11-15T06:16:01;97634.59;;;11.63;100.00
54417;BME280;40326;51.220;7.250;2022-11-15T06:18:26;97641.88;;;11.56;100.00
54417;BME280;40326;51.220;7.250;2022-11-15T06:20:52;97638.97;;;11.48;100.00
54417;BME280;40326;51.220;7.250;2022-11-15T06:23:17;97645.47;;;11.66;100.00
54417;BME280;40326;51.220;7.250;2022-11-15T06:25:43;97643.63;;;11.69;100.00
54417;BME280;40326;51.220;7.250;2022-11-15T06:28:08;97643.94;;;11.64;100.00
54417;BME280;40326;51.220;7.250;2022-11-15T06:30:34;97648.63;;;11.57;100.00
54417;BME280;40326;51.220;7.250;2022-11-15T06:33:01;97644.75;;;11.52;100.00
54417;BME280;40326;51.220;7.250;2022-11-15T06:35:27;97636.41;;;11.48;100.00
54417;BME280;40326;51.220;7.250;2022-11-15T06:37:53;97638.97;;;11.35;100.00
54417;BME280;40326;51.220;7.250;2022-11-15T06:40:18;97651.28;;;11.43;100.00
54417;BME280;40326;51.220;7.250;2022-11-15T06:42:43;97662.31;;;11.31;100.00
54417;BME280;40326;51.220;7.250;2022-11-15T06:45:09;97657.19;;;11.31;100.00
54417;BME280;40326;51.220;7.250;2022-11-15T06:47:34;97663.50;;;11.13;100.00
54417;BME280;40326;51.220;7.250;2022-11-15T06:49:59;97655.47;;;11.04;100.00
54417;BME280;40326;51.220;7.250;2022-11-15T06:52:25;97667.56;;;11.02;100.00
54417;BME280;40326;51.220;7.250;2022-11-15T06:54:50;97679.44;;;11.03;100.00
54417;BME280;40326;51.220;7.250;2022-11-15T06:57:15;97677.13;;;11.13;100.00
54417;BME280;40326;51.220;7.250;2022-11-15T06:59:41;97678.47;;;11.19;100.00
54417;BME280;40326;51.220;7.250;2022-11-15T07:02:13;97683.50;;;10.93;100.00
54417;BME280;40326;51.220;7.250;2022-11-15T07:04:39;97683.72;;;10.90;100.00
54417;BME280;40326;51.220;7.250;2022-11-15T07:07:04;97687.00;;;10.92;100.00
54417;BME280;40326;51.220;7.250;2022-11-15T07:09:29;97695.25;;;10.83;100.00
54417;BME280;40326;51.220;7.250;2022-11-15T07:11:55;97694.88;;;10.89;100.00
54417;BME280;40326;51.220;7.250;2022-11-15T07:14:20;97699.09;;;10.76;100.00
54417;BME280;40326;51.220;7.250;2022-11-15T07:16:45;97693.25;;;10.74;100.00
54417;BME280;40326;51.220;7.250;2022-11-15T07:19:10;97689.66;;;10.76;100.00
54417;BME280;40326;51.220;7.250;2022-11-15T07:21:36;97697.75;;;10.70;100.00
54417;BME280;40326;51.220;7.250;2022-11-15T07:24:01;97698.03;;;10.66;100.00
54417;BME280;40326;51.220;7.250;2022-11-15T07:26:26;97708.25;;;10.66;100.00
54417;BME280;40326;51.220;7.250;2022-11-15T07:28:52;97705.97;;;10.75;100.00
54417;BME280;40326;51.220;7.250;2022-11-15T07:31:17;97708.00;;;10.70;100.00
54417;BME280;40326;51.220;7.250;2022-11-15T07:33:42;97710.25;;;10.89;100.00
54417;BME280;40326;51.220;7.250;2022-11-15T07:36:08;97708.03;;;10.97;100.00
54417;BME280;40326;51.220;7.250;2022-11-15T07:38:34;97701.97;;;10.98;100.00
54417;BME280;40326;51.220;7.250;2022-11-15T07:41:03;97701.88;;;11.00;100.00
54417;BME280;40326;51.220;7.250;2022-11-15T07:43:30;97697.22;;;11.06;100.00
54417;BME280;40326;51.220;7.250;2022-11-15T07:45:58;97701.19;;;11.11;100.00
54417;BME280;40326;51.220;7.250;2022-11-15T07:48:29;97680.91;;;11.07;100.00
54417;BME280;40326;51.220;7.250;2022-11-15T07:50:55;97690.63;;;11.02;100.00
54417;BME280;40326;51.220;7.250;2022-11-15T07:53:20;97691.88;;;11.09;100.00
54417;BME280;40326;51.220;7.250;2022-11-15T07:55:45;97684.91;;;11.12;100.00
54417;BME280;40326;51.220;7.250;2022-11-15T07:58:11;97684.78;;;11.00;100.00
54417;BME280;40326;51.220;7.250;2022-11-15T08:00:37;97678.69;;;11.16;100.00
54417;BME280;40326;51.220;7.250;2022-11-15T08:03:14;97684.16;;;10.97;100.00
54417;BME280;40326;51.220;7.250;2022-11-15T08:05:41;97687.53;;;10.97;100.00
54417;BME280;40326;51.220;7.250;2022-11-15T08:08:08;97693.59;;;10.96;100.00
54417;BME280;40326;51.220;7.250;2022-11-15T08:10:34;97684.97;;;10.97;100.00
54417;BME280;40326;51.220;7.250;2022-11-15T08:13:04;97682.31;;;10.99;100.00
54417;BME280;40326;51.220;7.250;2022-11-15T08:15:30;97676.31;;;11.13;100.00
54417;BME280;40326;51.220;7.250;2022-11-15T08:17:57;97673.59;;;11.01;100.00
54417;BME280;40326;51.220;7.250;2022-11-15T08:20:24;97672.50;;;11.05;100.00
54417;BME280;40326;51.220;7.250;2022-11-15T08:22:50;97664.69;;;11.34;100.00
54417;BME280;40326;51.220;7.250;2022-11-15T08:25:15;97659.91;;;11.42;100.00
54417;BME280;40326;51.220;7.250;2022-11-15T08:27:41;97655.16;;;11.23;100.00
54417;BME280;40326;51.220;7.250;2022-11-15T08:30:06;97658.66;;;11.35;100.00
54417;BME280;40326;51.220;7.250;2022-11-15T08:32:32;97655.59;;;11.43;100.00
54417;BME280;40326;51.220;7.250;2022-11-15T08:34:57;97652.66;;;11.22;100.00
54417;BME280;40326;51.220;7.250;2022-11-15T08:37:22;97647.69;;;11.33;100.00
54417;BME280;40326;51.220;7.250;2022-11-15T08:39:48;97645.50;;;11.27;100.00
54417;BME280;40326;51.220;7.250;2022-11-15T08:42:13;97644.41;;;11.44;100.00
54417;BME280;40326;51.220;7.250;2022-11-15T08:44:40;97646.97;;;11.44;100.00
54417;BME280;40326;51.220;7.250;2022-11-15T08:47:05;97644.53;;;11.42;100.00
54417;BME280;40326;51.220;7.250;2022-11-15T08:49:30;97646.75;;;11.34;100.00
54417;BME280;40326;51.220;7.250;2022-11-15T08:51:55;97642.91;;;11.66;100.00
54417;BME280;40326;51.220;7.250;2022-11-15T08:54:21;97632.03;;;11.76;100.00
54417;BME280;40326;51.220;7.250;2022-11-15T08:56:46;97632.25;;;11.85;100.00
54417;BME280;40326;51.220;7.250;2022-11-15T08:59:11;97628.06;;;11.84;100.00
54417;BME280;40326;51.220;7.250;2022-11-15T09:01:37;97630.75;;;11.96;100.00
54417;BME280;40326;51.220;7.250;2022-11-15T09:04:02;97624.63;;;11.58;100.00
54417;BME280;40326;51.220;7.250;2022-11-15T09:06:29;97631.63;;;11.69;100.00
54417;BME280;40326;51.220;7.250;2022-11-15T09:08:54;97618.13;;;12.05;100.00
54417;BME280;40326;51.220;7.250;2022-11-15T09:11:19;97609.16;;;12.11;100.00
54417;BME280;40326;51.220;7.250;2022-11-15T09:13:47;97615.53;;;11.92;100.00
54417;BME280;40326;51.220;7.250;2022-11-15T09:16:12;97613.69;;;11.94;100.00
54417;BME280;40326;51.220;7.250;2022-11-15T09:18:38;97610.13;;;11.97;100.00
54417;BME280;40326;51.220;7.250;2022-11-15T09:21:03;97592.19;;;12.21;100.00
54417;BME280;40326;51.220;7.250;2022-11-15T09:23:29;97595.31;;;12.13;100.00
54417;BME280;40326;51.220;7.250;2022-11-15T09:26:02;97578.56;;;12.20;100.00
54417;BME280;40326;51.220;7.250;2022-11-15T09:28:28;97578.06;;;12.15;100.00
54417;BME280;40326;51.220;7.250;2022-11-15T09:31:01;97581.63;;;12.13;100.00
54417;BME280;40326;51.220;7.250;2022-11-15T09:33:27;97583.84;;;12.06;100.00
54417;BME280;40326;51.220;7.250;2022-11-15T09:35:52;97589.59;;;11.84;100.00
54417;BME280;40326;51.220;7.250;2022-11-15T09:38:19;97587.91;;;12.09;100.00
54417;BME280;40326;51.220;7.250;2022-11-15T09:40:48;97585.25;;;12.10;100.00
54417;BME280;40326;51.220;7.250;2022-11-15T09:48:50;97569.16;;;12.45;100.00
54417;BME280;40326;51.220;7.250;2022-11-15T09:51:37;97564.78;;;12.58;100.00
54417;BME280;40326;51.220;7.250;2022-11-15T09:56:42;97564.69;;;12.60;100.00
54417;BME280;40326;51.220;7.250;2022-11-15T09:59:23;97559.44;;;12.61;100.00
54417;BME280;40326;51.220;7.250;2022-11-15T10:04:20;97547.44;;;12.49;100.00
54417;BME280;40326;51.220;7.250;2022-11-15T10:06:51;97540.84;;;12.58;100.00
54417;BME280;40326;51.220;7.250;2022-11-15T10:09:34;97534.97;;;12.68;100.00
54417;BME280;40326;51.220;7.250;2022-11-15T10:12:02;97526.66;;;12.41;100.00
54417;BME280;40326;51.220;7.250;2022-11-15T10:14:30;97519.75;;;12.65;100.00
54417;BME280;40326;51.220;7.250;2022-11-15T10:20:05;97499.25;;;12.41;100.00
54417;BME280;40326;51.220;7.250;2022-11-15T10:22:29;97501.06;;;12.63;100.00
54417;BME280;40326;51.220;7.250;2022-11-15T10:25:18;97491.78;;;12.85;100.00
54417;BME280;40326;51.220;7.250;2022-11-15T10:27:47;97496.84;;;13.21;100.00
54417;BME280;40326;51.220;7.250;2022-11-15T10:30:17;97483.28;;;12.84;100.00
54417;BME280;40326;51.220;7.250;2022-11-15T10:32:44;97481.34;;;12.64;100.00
54417;BME280;40326;51.220;7.250;2022-11-15T10:35:28;97482.44;;;12.84;100.00
54417;BME280;40326;51.220;7.250;2022-11-15T10:38:11;97474.19;;;12.91;100.00
54417;BME280;40326;51.220;7.250;2022-11-15T10:40:39;97467.19;;;12.93;100.00
54417;BME280;40326;51.220;7.250;2022-11-15T10:43:12;97464.44;;;12.72;100.00
54417;BME280;40326;51.220;7.250;2022-11-15T10:45:39;97473.13;;;12.94;100.00
54417;BME280;40326;51.220;7.250;2022-11-15T10:50:40;97464.72;;;12.92;100.00
54417;BME280;40326;51.220;7.250;2022-11-15T10:55:42;97473.50;;;13.12;100.00
54417;BME280;40326;51.220;7.250;2022-11-15T10:58:34;97462.91;;;13.16;100.00
54417;BME280;40326;51.220;7.250;2022-11-15T11:01:18;97458.50;;;13.29;100.00
54417;BME280;40326;51.220;7.250;2022-11-15T11:03:44;97448.22;;;13.29;100.00
54417;BME280;40326;51.220;7.250;2022-11-15T11:06:15;97446.94;;;13.35;100.00
54417;BME280;40326;51.220;7.250;2022-11-15T11:08:53;97441.66;;;13.03;100.00
54417;BME280;40326;51.220;7.250;2022-11-15T11:11:19;97446.03;;;12.90;100.00
54417;BME280;40326;51.220;7.250;2022-11-15T11:13:44;97454.66;;;12.77;100.00
54417;BME280;40326;51.220;7.250;2022-11-15T11:19:20;97437.63;;;12.88;100.00
54417;BME280;40326;51.220;7.250;2022-11-15T11:30:13;97421.34;;;13.33;100.00
54417;BME280;40326;51.220;7.250;2022-11-15T11:47:19;97406.19;;;13.30;100.00
54417;BME280;40326;51.220;7.250;2022-11-15T11:49:53;97408.44;;;13.11;100.00
54417;BME280;40326;51.220;7.250;2022-11-15T11:52:29;97398.44;;;13.19;100.00
54417;BME280;40326;51.220;7.250;2022-11-15T12:00:21;97385.00;;;13.38;100.00
54417;BME280;40326;51.220;7.250;2022-11-15T12:05:46;97394.09;;;13.08;100.00
54417;BME280;40326;51.220;7.250;2022-11-15T12:08:21;97399.81;;;13.01;100.00
54417;BME280;40326;51.220;7.250;2022-11-15T12:10:52;97396.59;;;13.21;100.00
54417;BME280;40326;51.220;7.250;2022-11-15T12:13:21;97389.88;;;13.19;100.00
54417;BME280;40326;51.220;7.250;2022-11-15T12:16:10;97392.94;;;13.13;100.00
54417;BME280;40326;51.220;7.250;2022-11-15T12:18:37;97394.59;;;13.25;100.00
54417;BME280;40326;51.220;7.250;2022-11-15T12:21:13;97395.00;;;13.63;100.00
54417;BME280;40326;51.220;7.250;2022-11-15T12:23:50;97390.63;;;13.32;100.00
54417;BME280;40326;51.220;7.250;2022-11-15T12:26:22;97395.19;;;13.40;100.00
54417;BME280;40326;51.220;7.250;2022-11-15T12:28:55;97392.38;;;13.20;100.00
54417;BME280;40326;51.220;7.250;2022-11-15T12:31:41;97387.44;;;12.95;100.00
54417;BME280;40326;51.220;7.250;2022-11-15T12:36:48;97372.50;;;13.33;100.00
54417;BME280;40326;51.220;7.250;2022-11-15T12:39:15;97370.88;;;13.32;100.00
54417;BME280;40326;51.220;7.250;2022-11-15T12:41:42;97357.53;;;13.05;100.00
54417;BME280;40326;51.220;7.250;2022-11-15T12:44:16;97354.63;;;13.43;100.00
54417;BME280;40326;51.220;7.250;2022-11-15T13:02:23;97322.63;;;12.91;100.00
54417;BME280;40326;51.220;7.250;2022-11-15T13:04:50;97315.38;;;12.96;100.00
54417;BME280;40326;51.220;7.250;2022-11-15T13:10:01;97308.28;;;13.22;100.00
54417;BME280;40326;51.220;7.250;2022-11-15T13:14:54;97298.22;;;12.86;100.00
54417;BME280;40326;51.220;7.250;2022-11-15T13:17:23;97294.50;;;12.78;100.00
54417;BME280;40326;51.220;7.250;2022-11-15T13:19:56;97287.94;;;12.74;100.00
54417;BME280;40326;51.220;7.250;2022-11-15T13:22:24;97287.47;;;12.81;100.00
54417;BME280;40326;51.220;7.250;2022-11-15T13:30:50;97281.38;;;12.48;100.00
54417;BME280;40326;51.220;7.250;2022-11-15T13:33:23;97280.19;;;12.30;100.00
54417;BME280;40326;51.220;7.250;2022-11-15T13:35:52;97273.13;;;12.44;100.00
54417;BME280;40326;51.220;7.250;2022-11-15T13:38:26;97275.56;;;12.35;100.00
54417;BME280;40326;51.220;7.250;2022-11-15T13:40:52;97275.78;;;12.32;100.00
54417;BME280;40326;51.220;7.250;2022-11-15T13:43:35;97271.56;;;12.31;100.00
54417;BME280;40326;51.220;7.250;2022-11-15T13:46:27;97267.63;;;12.49;100.00
54417;BME280;40326;51.220;7.250;2022-11-15T13:49:02;97273.94;;;12.56;100.00
54417;BME280;40326;51.220;7.250;2022-11-15T13:51:47;97267.63;;;12.49;100.00
54417;BME280;40326;51.220;7.250;2022-11-15T13:56:44;97255.97;;;12.78;100.00
54417;BME280;40326;51.220;7.250;2022-11-15T13:59:16;97253.97;;;12.82;100.00
54417;BME280;40326;51.220;7.250;2022-11-15T14:01:43;97252.47;;;12.79;100.00
54417;BME280;40326;51.220;7.250;2022-11-15T14:04:13;97247.56;;;12.88;100.00
54417;BME280;40326;51.220;7.250;2022-11-15T14:06:49;97241.47;;;12.89;100.00
54417;BME280;40326;51.220;7.250;2022-11-15T14:09:34;97236.47;;;12.87;100.00
54417;BME280;40326;51.220;7.250;2022-11-15T14:12:02;97231.16;;;13.00;100.00
54417;BME280;40326;51.220;7.250;2022-11-15T14:14:46;97214.16;;;12.88;100.00
54417;BME280;40326;51.220;7.250;2022-11-15T14:17:40;97214.88;;;12.78;100.00
54417;BME280;40326;51.220;7.250;2022-11-15T14:22:54;97212.75;;;12.84;100.00
54417;BME280;40326;51.220;7.250;2022-11-15T14:25:23;97209.84;;;12.77;100.00
54417;BME280;40326;51.220;7.250;2022-11-15T14:30:33;97198.78;;;12.76;100.00
54417;BME280;40326;51.220;7.250;2022-11-15T14:32:58;97191.50;;;12.82;100.00
54417;BME280;40326;51.220;7.250;2022-11-15T14:35:23;97189.22;;;12.67;100.00
54417;BME280;40326;51.220;7.250;2022-11-15T14:37:49;97188.25;;;12.57;100.00
54417;BME280;40326;51.220;7.250;2022-11-15T14:40:20;97180.28;;;12.83;100.00
54417;BME280;40326;51.220;7.250;2022-11-15T14:42:47;97176.84;;;12.61;100.00
54417;BME280;40326;51.220;7.250;2022-11-15T14:45:15;97168.88;;;12.64;100.00
54417;BME280;40326;51.220;7.250;2022-11-15T14:47:42;97171.59;;;12.52;100.00
54417;BME280;40326;51.220;7.250;2022-11-15T14:50:14;97171.47;;;12.53;100.00
54417;BME280;40326;51.220;7.250;2022-11-15T14:52:41;97178.50;;;12.51;100.00
54417;BME280;40326;51.220;7.250;2022-11-15T14:55:19;97168.47;;;12.26;100.00
54417;BME280;40326;51.220;7.250;2022-11-15T14:57:46;97158.56;;;12.32;100.00
54417;BME280;40326;51.220;7.250;2022-11-15T15:00:12;97163.31;;;12.26;100.00
54417;BME280;40326;51.220;7.250;2022-11-15T15:02:39;97155.75;;;12.24;100.00
54417;BME280;40326;51.220;7.250;2022-11-15T15:05:22;97154.34;;;12.20;100.00
54417;BME280;40326;51.220;7.250;2022-11-15T15:07:48;97150.50;;;12.26;100.00
54417;BME280;40326;51.220;7.250;2022-11-15T15:10:15;97151.88;;;12.18;100.00
54417;BME280;40326;51.220;7.250;2022-11-15T15:12:40;97142.31;;;12.20;100.00
54417;BME280;40326;51.220;7.250;2022-11-15T15:15:12;97136.88;;;12.14;100.00
54417;BME280;40326;51.220;7.250;2022-11-15T15:17:38;97140.25;;;12.14;100.00
54417;BME280;40326;51.220;7.250;2022-11-15T15:20:03;97134.28;;;12.14;100.00
54417;BME280;40326;51.220;7.250;2022-11-15T15:22:29;97125.97;;;12.21;100.00
54417;BME280;40326;51.220;7.250;2022-11-15T15:24:55;97121.56;;;12.12;100.00
54417;BME280;40326;51.220;7.250;2022-11-15T15:27:20;97121.34;;;12.15;100.00
54417;BME280;40326;51.220;7.250;2022-11-15T15:29:45;97120.16;;;12.19;100.00
54417;BME280;40326;51.220;7.250;2022-11-15T15:32:11;97112.47;;;12.19;100.00
54417;BME280;40326;51.220;7.250;2022-11-15T15:34:38;97112.59;;;12.18;100.00
54417;BME280;40326;51.220;7.250;2022-11-15T15:37:24;97103.97;;;12.08;100.00
54417;BME280;40326;51.220;7.250;2022-11-15T15:39:55;97102.44;;;12.16;100.00
54417;BME280;40326;51.220;7.250;2022-11-15T15:42:22;97099.66;;;12.08;100.00
54417;BME280;40326;51.220;7.250;2022-11-15T15:44:48;97101.28;;;12.09;100.00
54417;BME280;40326;51.220;7.250;2022-11-15T15:47:19;97104.09;;;12.06;100.00
54417;BME280;40326;51.220;7.250;2022-11-15T15:49:45;97098.47;;;12.12;100.00
54417;BME280;40326;51.220;7.250;2022-11-15T15:52:11;97097.53;;;12.02;100.00
54417;BME280;40326;51.220;7.250;2022-11-15T15:54:37;97101.03;;;12.12;100.00
54417;BME280;40326;51.220;7.250;2022-11-15T15:57:03;97094.88;;;12.15;100.00
54417;BME280;40326;51.220;7.250;2022-11-15T15:59:28;97091.03;;;12.09;100.00
54417;BME280;40326;51.220;7.250;2022-11-15T16:01:54;97095.91;;;12.12;100.00
54417;BME280;40326;51.220;7.250;2022-11-15T16:04:19;97087.06;;;12.16;100.00
54417;BME280;40326;51.220;7.250;2022-11-15T16:06:44;97088.00;;;12.04;100.00
54417;BME280;40326;51.220;7.250;2022-11-15T16:09:14;97085.53;;;12.14;100.00
54417;BME280;40326;51.220;7.250;2022-11-15T16:11:41;97086.94;;;12.18;100.00
54417;BME280;40326;51.220;7.250;2022-11-15T16:14:07;97081.22;;;12.14;100.00
54417;BME280;40326;51.220;7.250;2022-11-15T16:16:33;97077.03;;;12.13;100.00
54417;BME280;40326;51.220;7.250;2022-11-15T16:18:59;97084.25;;;12.08;100.00
54417;BME280;40326;51.220;7.250;2022-11-15T16:21:26;97088.44;;;12.20;100.00
54417;BME280;40326;51.220;7.250;2022-11-15T16:23:51;97083.78;;;12.03;100.00
54417;BME280;40326;51.220;7.250;2022-11-15T16:26:25;97084.81;;;12.12;100.00
54417;BME280;40326;51.220;7.250;2022-11-15T16:28:51;97079.13;;;12.08;100.00
54417;BME280;40326;51.220;7.250;2022-11-15T16:31:17;97078.66;;;12.03;100.00
54417;BME280;40326;51.220;7.250;2022-11-15T16:33:45;97070.75;;;12.06;100.00
54417;BME280;40326;51.220;7.250;2022-11-15T16:36:26;97075.06;;;12.06;100.00
54417;BME280;40326;51.220;7.250;2022-11-15T16:38:54;97071.44;;;12.08;100.00
54417;BME280;40326;51.220;7.250;2022-11-15T16:41:19;97067.22;;;12.18;100.00
54417;BME280;40326;51.220;7.250;2022-11-15T16:43:45;97064.44;;;12.10;100.00
54417;BME280;40326;51.220;7.250;2022-11-15T16:46:20;97060.69;;;12.03;100.00
54417;BME280;40326;51.220;7.250;2022-11-15T16:48:46;97063.16;;;12.05;100.00
54417;BME280;40326;51.220;7.250;2022-11-15T16:51:11;97058.25;;;12.02;100.00
54417;BME280;40326;51.220;7.250;2022-11-15T16:53:37;97061.66;;;12.13;100.00
54417;BME280;40326;51.220;7.250;2022-11-15T16:56:03;97061.16;;;12.19;100.00
54417;BME280;40326;51.220;7.250;2022-11-15T16:58:28;97057.41;;;12.12;100.00
54417;BME280;40326;51.220;7.250;2022-11-15T17:00:55;97063.97;;;12.16;100.00
54417;BME280;40326;51.220;7.250;2022-11-15T17:03:22;97064.41;;;12.21;100.00
54417;BME280;40326;51.220;7.250;2022-11-15T17:05:48;97062.78;;;12.20;100.00
54417;BME280;40326;51.220;7.250;2022-11-15T17:08:14;97049.97;;;12.09;100.00
54417;BME280;40326;51.220;7.250;2022-11-15T17:10:39;97054.75;;;12.14;100.00
54417;BME280;40326;51.220;7.250;2022-11-15T17:13:09;97055.66;;;12.13;100.00
54417;BME280;40326;51.220;7.250;2022-11-15T17:15:35;97056.03;;;12.08;100.00
54417;BME280;40326;51.220;7.250;2022-11-15T17:18:01;97061.88;;;12.10;100.00
54417;BME280;40326;51.220;7.250;2022-11-15T17:20:26;97047.88;;;12.14;100.00
54417;BME280;40326;51.220;7.250;2022-11-15T17:22:51;97048.09;;;12.11;100.00
54417;BME280;40326;51.220;7.250;2022-11-15T17:25:17;97049.25;;;12.18;100.00
54417;BME280;40326;51.220;7.250;2022-11-15T17:27:42;97052.75;;;12.17;100.00
54417;BME280;40326;51.220;7.250;2022-11-15T17:30:11;97049.81;;;12.22;100.00
54417;BME280;40326;51.220;7.250;2022-11-15T17:32:37;97063.50;;;12.23;100.00
54417;BME280;40326;51.220;7.250;2022-11-15T17:35:04;97044.13;;;12.18;100.00
54417;BME280;40326;51.220;7.250;2022-11-15T17:37:31;97049.41;;;12.06;100.00
54417;BME280;40326;51.220;7.250;2022-11-15T17:39:56;97046.81;;;12.17;100.00
54417;BME280;40326;51.220;7.250;2022-11-15T17:42:21;97045.88;;;12.18;100.00
54417;BME280;40326;51.220;7.250;2022-11-15T17:44:47;97052.06;;;12.15;100.00
54417;BME280;40326;51.220;7.250;2022-11-15T17:47:12;97048.69;;;12.15;100.00
54417;BME280;40326;51.220;7.250;2022-11-15T17:49:37;97049.25;;;12.18;100.00
54417;BME280;40326;51.220;7.250;2022-11-15T17:52:05;97049.25;;;12.18;100.00
54417;BME280;40326;51.220;7.250;2022-11-15T17:54:30;97037.72;;;12.24;100.00
54417;BME280;40326;51.220;7.250;2022-11-15T17:56:55;97050.75;;;12.32;100.00
54417;BME280;40326;51.220;7.250;2022-11-15T17:59:21;97037.81;;;12.34;100.00
54417;BME280;40326;51.220;7.250;2022-11-15T18:01:46;97041.66;;;12.28;100.00
54417;BME280;40326;51.220;7.250;2022-11-15T18:04:11;97031.94;;;12.43;100.00
54417;BME280;40326;51.220;7.250;2022-11-15T18:06:39;97031.47;;;12.38;100.00
54417;BME280;40326;51.220;7.250;2022-11-15T18:09:04;97044.00;;;12.31;100.00
54417;BME280;40326;51.220;7.250;2022-11-15T18:11:34;97047.00;;;12.36;100.00
54417;BME280;40326;51.220;7.250;2022-11-15T18:14:01;97055.91;;;12.32;100.00
54417;BME280;40326;51.220;7.250;2022-11-15T18:16:29;97051.78;;;12.30;100.00
54417;BME280;40326;51.220;7.250;2022-11-15T18:18:55;97051.31;;;12.36;100.00
54417;BME280;40326;51.220;7.250;2022-11-15T18:21:22;97051.78;;;12.30;100.00
54417;BME280;40326;51.220;7.250;2022-11-15T18:23:52;97050.88;;;12.19;100.00
54417;BME280;40326;51.220;7.250;2022-11-15T18:26:17;97039.69;;;12.20;100.00
54417;BME280;40326;51.220;7.250;2022-11-15T18:28:46;97053.69;;;12.28;100.00
54417;BME280;40326;51.220;7.250;2022-11-15T18:31:19;97042.25;;;12.20;100.00
54417;BME280;40326;51.220;7.250;2022-11-15T18:33:46;97046.25;;;12.13;100.00
54417;BME280;40326;51.220;7.250;2022-11-15T18:36:13;97041.56;;;12.18;100.00
54417;BME280;40326;51.220;7.250;2022-11-15T18:38:39;97036.81;;;12.14;100.00
54417;BME280;40326;51.220;7.250;2022-11-15T18:41:08;97041.56;;;12.18;100.00
54417;BME280;40326;51.220;7.250;2022-11-15T18:43:34;97041.34;;;12.10;100.00
54417;BME280;40326;51.220;7.250;2022-11-15T18:46:22;97044.16;;;12.07;100.00
54417;BME280;40326;51.220;7.250;2022-11-15T18:48:47;97037.16;;;11.98;100.00
54417;BME280;40326;51.220;7.250;2022-11-15T18:51:18;97038.31;;;12.05;100.00
54417;BME280;40326;51.220;7.250;2022-11-15T18:53:44;97038.09;;;11.86;100.00
54417;BME280;40326;51.220;7.250;2022-11-15T18:56:14;97046.94;;;11.93;100.00